Time;durP1;ratioP1;P1;durP2;ratioP2;P2;SDS_P1;SDS_P2;PMS_P1;PMS_P2;Temp;Humidity;BMP_temperature;BMP_pressure;BME280_temperature;BME280_humidity;BME280_pressure;Samples;Min_cycle;Max_cycle;Signal;HPM_P1;HPM_P2
2022/03/20 00:00:53;;;;;;;35.05;23.60;;;8.90;99.90;;;;;;5045900;28;20025;-73
2022/03/20 00:03:21;;;;;;;32.53;22.80;;;8.90;99.90;;;;;;5049313;28;20021;-73
2022/03/20 00:05:49;;;;;;;29.90;24.30;;;8.90;99.90;;;;;;5042723;28;20424;-72
2022/03/20 00:08:16;;;;;;;29.73;23.40;;;9.00;99.90;;;;;;5040725;28;20060;-73
2022/03/20 00:10:47;;;;;;;30.00;19.95;;;9.00;99.90;;;;;;5040876;28;20025;-73
2022/03/20 00:13:18;;;;;;;28.23;24.13;;;8.90;99.90;;;;;;5038248;28;20021;-73
2022/03/20 00:15:46;;;;;;;28.55;20.70;;;8.90;99.90;;;;;;5045645;28;20495;-74
2022/03/20 00:18:13;;;;;;;29.10;22.48;;;8.90;99.90;;;;;;5036466;28;20033;-72
2022/03/20 00:20:51;;;;;;;29.92;24.30;;;9.10;99.90;;;;;;5040122;28;20043;-72
2022/03/20 00:23:18;;;;;;;25.30;18.98;;;9.10;99.90;;;;;;5042281;28;20037;-73
2022/03/20 00:25:45;;;;;;;34.83;22.08;;;9.10;99.90;;;;;;5039010;28;20088;-72
2022/03/20 00:28:14;;;;;;;33.38;24.05;;;9.10;99.90;;;;;;5039907;28;20480;-72
2022/03/20 00:30:40;;;;;;;24.63;19.30;;;9.00;99.90;;;;;;5039446;28;20035;-72
2022/03/20 00:33:06;;;;;;;27.95;22.98;;;9.00;99.90;;;;;;5037416;28;20025;-72
2022/03/20 00:35:32;;;;;;;34.90;22.92;;;9.00;99.90;;;;;;5045172;28;20032;-72
2022/03/20 00:37:58;;;;;;;33.90;23.30;;;8.90;99.90;;;;;;5036247;28;20108;-73
2022/03/20 00:40:24;;;;;;;24.98;21.13;;;8.80;99.90;;;;;;5037959;28;20914;-72
2022/03/20 00:42:51;;;;;;;31.40;24.65;;;8.80;99.90;;;;;;5043834;28;20044;-71
2022/03/20 00:45:17;;;;;;;24.98;20.27;;;8.70;99.90;;;;;;5042311;28;20029;-73
2022/03/20 00:47:43;;;;;;;32.00;23.48;;;8.70;99.90;;;;;;5039409;28;20033;-72
2022/03/20 00:50:09;;;;;;;36.88;23.98;;;8.70;99.90;;;;;;5045704;28;20021;-71
2022/03/20 00:52:35;;;;;;;27.65;21.70;;;8.70;99.90;;;;;;5043338;28;20035;-72
2022/03/20 00:55:01;;;;;;;27.52;20.90;;;8.70;99.90;;;;;;5041410;28;20047;-72
2022/03/20 00:57:27;;;;;;;33.28;23.15;;;8.80;99.90;;;;;;5049084;28;20033;-72
2022/03/20 00:59:53;;;;;;;29.95;23.05;;;8.70;99.90;;;;;;5048331;28;20122;-71
2022/03/20 01:02:19;;;;;;;31.45;24.98;;;8.60;99.90;;;;;;5041887;28;20108;-72
2022/03/20 01:04:45;;;;;;;25.23;20.30;;;8.60;99.90;;;;;;5042077;28;20039;-71
2022/03/20 01:07:11;;;;;;;25.55;21.00;;;8.60;99.90;;;;;;5041645;28;20033;-72
2022/03/20 01:09:37;;;;;;;28.63;23.92;;;8.60;99.90;;;;;;5049926;28;20468;-73
2022/03/20 01:12:05;;;;;;;35.97;26.10;;;8.60;99.90;;;;;;5039344;28;20044;-72
2022/03/20 01:14:31;;;;;;;28.50;24.38;;;8.60;99.90;;;;;;5045568;28;20383;-72
2022/03/20 01:16:57;;;;;;;26.90;22.55;;;8.60;99.90;;;;;;5042522;28;20024;-73
2022/03/20 01:19:24;;;;;;;27.67;20.42;;;8.60;99.90;;;;;;5044148;28;20040;-73
2022/03/20 01:21:51;;;;;;;31.88;23.42;;;8.60;99.90;;;;;;5042549;28;20084;-72
2022/03/20 01:24:17;;;;;;;27.65;22.67;;;8.70;99.90;;;;;;5046977;28;20029;-72
2022/03/20 01:26:43;;;;;;;26.95;22.20;;;8.80;99.90;;;;;;5051630;28;20036;-73
2022/03/20 01:29:09;;;;;;;29.50;22.67;;;8.90;99.80;;;;;;5052838;28;20067;-72
2022/03/20 01:31:35;;;;;;;32.85;20.83;;;8.80;99.90;;;;;;5051195;28;20383;-72
2022/03/20 01:34:02;;;;;;;29.67;21.42;;;8.80;99.90;;;;;;5053401;28;20109;-72
2022/03/20 01:36:28;;;;;;;27.08;19.83;;;8.80;99.90;;;;;;5052957;28;20032;-73
2022/03/20 01:38:54;;;;;;;26.80;22.38;;;8.80;99.70;;;;;;5053092;28;20397;-72
2022/03/20 01:41:21;;;;;;;29.85;20.23;;;9.00;99.70;;;;;;5046660;28;20044;-73
2022/03/20 01:43:57;;;;;;;25.60;21.77;;;9.00;99.40;;;;;;5053396;28;20021;-73
2022/03/20 01:46:23;;;;;;;28.90;21.17;;;9.00;99.20;;;;;;5052404;28;20028;-73
2022/03/20 01:48:50;;;;;;;23.85;19.95;;;9.10;99.20;;;;;;5053249;28;20025;-73
2022/03/20 01:51:17;;;;;;;31.33;21.83;;;9.10;99.10;;;;;;5052847;28;20021;-72
2022/03/20 01:53:43;;;;;;;27.98;19.20;;;9.10;98.90;;;;;;5051760;28;20033;-73
2022/03/20 01:56:09;;;;;;;29.23;22.73;;;9.00;98.70;;;;;;5052230;28;20017;-73
2022/03/20 01:58:36;;;;;;;29.42;24.13;;;9.00;98.90;;;;;;5045182;28;20025;-73
2022/03/20 02:01:02;;;;;;;29.17;21.70;;;8.90;98.90;;;;;;5044326;28;20438;-73
2022/03/20 02:03:29;;;;;;;29.40;19.92;;;8.90;98.70;;;;;;5044560;28;20388;-73
2022/03/20 02:05:55;;;;;;;28.83;17.45;;;8.90;98.60;;;;;;5047996;28;20036;-72
2022/03/20 02:08:25;;;;;;;23.10;19.92;;;9.00;98.50;;;;;;5039688;28;20033;-73
2022/03/20 02:10:55;;;;;;;28.42;22.25;;;9.00;98.70;;;;;;5050807;28;20497;-72
2022/03/20 02:13:22;;;;;;;27.10;21.73;;;9.00;98.40;;;;;;5041182;28;20034;-73
2022/03/20 02:15:49;;;;;;;25.77;22.38;;;8.90;98.50;;;;;;5047858;28;20029;-73
2022/03/20 02:18:15;;;;;;;34.28;20.92;;;8.90;98.20;;;;;;5039964;28;20036;-73
2022/03/20 02:20:48;;;;;;;24.85;20.75;;;8.90;98.30;;;;;;5039173;28;20436;-73
2022/03/20 02:23:15;;;;;;;30.80;22.20;;;8.90;98.20;;;;;;5042999;28;20051;-73
2022/03/20 02:25:49;;;;;;;26.20;22.08;;;8.90;98.20;;;;;;5039488;28;20435;-72
2022/03/20 02:28:15;;;;;;;28.60;21.52;;;8.90;98.20;;;;;;5043300;28;20021;-72
2022/03/20 02:30:41;;;;;;;26.10;20.73;;;8.90;98.10;;;;;;5040256;28;20062;-73
2022/03/20 02:33:08;;;;;;;29.05;19.85;;;8.90;98.20;;;;;;5042701;28;20541;-72
2022/03/20 02:35:34;;;;;;;25.02;19.23;;;8.90;98.20;;;;;;5040351;28;20028;-72
2022/03/20 02:38:01;;;;;;;24.60;19.35;;;8.90;98.20;;;;;;5046132;28;20498;-72
2022/03/20 02:40:26;;;;;;;31.48;22.83;;;8.90;98.20;;;;;;5039781;28;20033;-72
2022/03/20 02:42:54;;;;;;;24.40;19.48;;;8.90;98.30;;;;;;5043105;28;20040;-73
2022/03/20 02:45:28;;;;;;;28.05;20.27;;;8.90;98.30;;;;;;5039351;28;20036;-73
2022/03/20 02:47:54;;;;;;;29.17;22.63;;;8.80;98.50;;;;;;5041595;28;20055;-74
2022/03/20 02:50:22;;;;;;;25.58;20.80;;;8.80;98.50;;;;;;5051329;28;20356;-72
2022/03/20 02:53:11;;;;;;;29.80;23.98;;;8.80;98.50;;;;;;5057266;28;20021;-73
2022/03/20 02:55:38;;;;;;;38.72;22.48;;;8.80;98.70;;;;;;5050377;28;20017;-71
2022/03/20 02:58:06;;;;;;;28.02;22.80;;;8.70;98.80;;;;;;5046590;28;20037;-72
2022/03/20 03:00:33;;;;;;;31.95;24.48;;;8.70;98.80;;;;;;5042498;28;20064;-72
2022/03/20 03:03:01;;;;;;;32.47;22.30;;;8.70;98.80;;;;;;5049879;28;20100;-72
2022/03/20 03:05:29;;;;;;;32.13;23.95;;;8.70;98.80;;;;;;5049940;28;20018;-73
2022/03/20 03:10:58;;;;;;;28.58;22.90;;;8.70;98.70;;;;;;5048488;28;20044;-74
2022/03/20 03:13:29;;;;;;;28.02;21.02;;;8.70;98.70;;;;;;5046149;28;20424;-73
2022/03/20 03:15:57;;;;;;;23.65;21.02;;;8.70;98.70;;;;;;5048877;28;20108;-73
2022/03/20 03:18:23;;;;;;;28.40;22.70;;;8.70;98.30;;;;;;5050980;28;20059;-73
2022/03/20 03:20:50;;;;;;;33.55;18.95;;;8.80;98.30;;;;;;5051541;28;20383;-73
2022/03/20 03:23:17;;;;;;;26.42;20.73;;;8.70;98.40;;;;;;5051773;28;20029;-72
2022/03/20 03:25:43;;;;;;;27.77;21.85;;;8.70;98.40;;;;;;5051523;28;20213;-74
2022/03/20 03:28:11;;;;;;;29.13;24.02;;;8.70;98.50;;;;;;5050542;28;20490;-72
2022/03/20 03:30:38;;;;;;;27.55;22.38;;;8.60;98.30;;;;;;5049159;28;20506;-73
2022/03/20 03:33:04;;;;;;;27.48;20.70;;;8.60;98.70;;;;;;5049687;28;20094;-73
2022/03/20 03:35:42;;;;;;;26.10;19.80;;;8.60;98.10;;;;;;5046268;28;20368;-73
2022/03/20 03:38:13;;;;;;;27.15;21.17;;;8.70;98.10;;;;;;5046751;28;20051;-73
2022/03/20 03:40:40;;;;;;;26.02;19.30;;;8.60;97.70;;;;;;5050760;28;20383;-73
2022/03/20 03:43:06;;;;;;;28.52;22.05;;;8.70;97.70;;;;;;5050567;28;20033;-72
2022/03/20 03:45:32;;;;;;;23.83;19.67;;;8.70;97.70;;;;;;5049096;28;20513;-72
2022/03/20 03:47:58;;;;;;;33.45;22.02;;;8.60;97.60;;;;;;5049844;28;20091;-73
2022/03/20 03:50:24;;;;;;;27.15;20.90;;;8.60;97.50;;;;;;5052320;28;20052;-73
2022/03/20 03:52:50;;;;;;;28.42;23.40;;;8.60;97.60;;;;;;5050899;28;20066;-73
2022/03/20 03:55:16;;;;;;;30.45;23.15;;;8.60;97.70;;;;;;5053688;28;20487;-73
2022/03/20 03:57:47;;;;;;;22.13;18.30;;;8.60;97.70;;;;;;5049540;28;20036;-73
2022/03/20 04:00:14;;;;;;;32.20;23.20;;;8.60;97.40;;;;;;5051337;28;20035;-73
2022/03/20 04:02:40;;;;;;;29.00;22.65;;;8.60;97.50;;;;;;5054858;28;20619;-73
2022/03/20 04:05:06;;;;;;;32.10;21.73;;;8.60;97.50;;;;;;5058118;28;20039;-72
2022/03/20 04:07:32;;;;;;;32.08;22.30;;;8.60;97.60;;;;;;5060961;28;20635;-71
2022/03/20 04:10:00;;;;;;;28.83;22.27;;;8.60;97.60;;;;;;5058224;28;20036;-73
2022/03/20 04:12:25;;;;;;;29.75;22.67;;;8.50;97.60;;;;;;5054243;28;20144;-72
2022/03/20 04:14:51;;;;;;;29.80;22.40;;;8.50;97.80;;;;;;5056870;28;20040;-72
2022/03/20 04:17:17;;;;;;;30.23;23.15;;;8.50;97.70;;;;;;5056363;28;20021;-73
2022/03/20 04:19:42;;;;;;;30.48;22.23;;;8.50;97.80;;;;;;5054236;28;20174;-72
2022/03/20 04:22:09;;;;;;;33.33;23.30;;;8.50;97.80;;;;;;5049274;28;20041;-72
2022/03/20 04:24:36;;;;;;;30.70;23.52;;;8.50;97.90;;;;;;5047482;28;20025;-73
2022/03/20 04:27:03;;;;;;;33.05;23.27;;;8.40;98.10;;;;;;5044188;28;20021;-72
2022/03/20 04:29:29;;;;;;;27.65;21.83;;;8.40;98.10;;;;;;5050513;28;20104;-73
2022/03/20 04:31:55;;;;;;;27.90;24.00;;;8.40;98.20;;;;;;5050051;28;20064;-73
2022/03/20 04:34:24;;;;;;;29.70;23.90;;;8.40;98.50;;;;;;5050449;28;20045;-73
2022/03/20 04:36:50;;;;;;;25.15;22.33;;;8.30;98.50;;;;;;5049445;28;20060;-73
2022/03/20 04:39:16;;;;;;;31.35;23.73;;;8.30;98.60;;;;;;5049477;28;20446;-73
2022/03/20 04:41:43;;;;;;;31.83;23.27;;;8.20;98.80;;;;;;5041250;28;20032;-73
2022/03/20 04:44:12;;;;;;;28.35;23.38;;;8.30;98.70;;;;;;5045179;28;20033;-74
2022/03/20 04:46:39;;;;;;;28.88;23.92;;;8.20;98.80;;;;;;5041139;28;20057;-73
2022/03/20 05:00:25;;;;;;;28.50;23.42;;;7.90;99.20;;;;;;5045846;28;20036;-74
2022/03/20 05:02:51;;;;;;;34.13;25.10;;;7.80;99.40;;;;;;5044784;28;20036;-72
2022/03/20 05:05:18;;;;;;;32.83;24.00;;;7.90;99.20;;;;;;5045364;28;20029;-73
2022/03/20 05:07:43;;;;;;;31.75;24.98;;;7.80;99.10;;;;;;5045232;28;20039;-73
2022/03/20 05:15:44;;;;;;;30.48;22.83;;;7.80;99.50;;;;;;5043720;28;20028;-73
2022/03/20 05:18:10;;;;;;;30.92;22.50;;;7.80;99.10;;;;;;5044039;28;20608;-73
2022/03/20 05:20:36;;;;;;;33.08;24.13;;;7.70;99.30;;;;;;5045837;28;20403;-73
2022/03/20 05:23:03;;;;;;;30.23;22.88;;;7.60;99.40;;;;;;5045524;28;20075;-74
2022/03/20 05:25:29;;;;;;;32.50;23.67;;;7.60;99.50;;;;;;5045590;28;20025;-73
2022/03/20 05:27:56;;;;;;;24.88;17.38;;;7.60;99.60;;;;;;5044530;28;20030;-73
2022/03/20 05:30:23;;;;;;;29.73;23.40;;;7.60;99.40;;;;;;5048313;28;20391;-72
2022/03/20 05:32:52;;;;;;;23.25;20.13;;;7.60;99.60;;;;;;5045136;28;20029;-73
2022/03/20 05:35:21;;;;;;;32.63;23.25;;;7.60;99.50;;;;;;5044709;28;20544;-73
2022/03/20 05:37:48;;;;;;;30.08;21.80;;;7.50;99.60;;;;;;5042225;28;20043;-73
2022/03/20 05:40:40;;;;;;;26.50;21.90;;;7.50;99.40;;;;;;5041466;28;20086;-73
2022/03/20 05:43:10;;;;;;;30.27;20.67;;;7.50;99.30;;;;;;5041702;28;20109;-74
2022/03/20 05:45:44;;;;;;;30.08;25.02;;;7.60;99.20;;;;;;5043670;28;20102;-74
2022/03/20 05:48:10;;;;;;;29.10;23.10;;;7.60;99.30;;;;;;5048132;28;20394;-74
2022/03/20 05:50:36;;;;;;;28.75;23.30;;;7.50;98.80;;;;;;5051296;28;20017;-74
2022/03/20 05:53:29;;;;;;;29.73;21.85;;;7.50;98.90;;;;;;5054054;28;20025;-74
2022/03/20 05:58:50;;;;;;;30.40;20.30;;;7.50;98.80;;;;;;5054583;28;20032;-76
2022/03/20 06:01:16;;;;;;;29.95;22.73;;;7.60;98.80;;;;;;5053354;28;20032;-72
2022/03/20 06:03:42;;;;;;;35.53;19.55;;;7.60;98.50;;;;;;5052499;28;20097;-73
2022/03/20 06:06:10;;;;;;;29.73;21.58;;;7.70;98.30;;;;;;5052231;28;20036;-72
2022/03/20 06:08:35;;;;;;;34.65;23.10;;;7.70;98.40;;;;;;5051543;28;20032;-74
2022/03/20 06:11:02;;;;;;;32.45;20.95;;;7.80;98.40;;;;;;5054240;28;20399;-73
2022/03/20 06:13:28;;;;;;;21.17;16.83;;;7.80;98.30;;;;;;5053250;28;20017;-73
2022/03/20 06:15:57;;;;;;;31.38;22.17;;;7.80;98.10;;;;;;5053355;28;20052;-73
2022/03/20 06:18:25;;;;;;;28.23;20.05;;;7.80;97.80;;;;;;5054345;28;20024;-74
2022/03/20 06:20:52;;;;;;;32.85;22.08;;;7.90;97.90;;;;;;5053694;28;20492;-73
2022/03/20 06:23:18;;;;;;;23.80;16.65;;;7.90;97.80;;;;;;5053245;28;20028;-73
2022/03/20 06:26:16;;;;;;;32.38;20.90;;;8.00;97.90;;;;;;5053391;28;20055;-75
2022/03/20 06:28:43;;;;;;;25.88;20.73;;;8.10;97.50;;;;;;5052633;28;20422;-73
2022/03/20 06:31:11;;;;;;;26.15;18.33;;;8.10;97.60;;;;;;5051309;28;20562;-73
2022/03/20 06:33:38;;;;;;;24.02;17.92;;;8.20;97.10;;;;;;5051676;28;20536;-73
2022/03/20 06:36:05;;;;;;;25.50;20.40;;;8.20;97.20;;;;;;5051889;28;20120;-73
2022/03/20 06:39:05;;;;;;;28.58;19.65;;;8.30;96.90;;;;;;5047656;28;20081;-74
2022/03/20 06:41:31;;;;;;;23.58;19.27;;;8.40;97.10;;;;;;5056796;28;20052;-74
2022/03/20 06:43:57;;;;;;;25.17;20.15;;;8.40;96.60;;;;;;5050910;28;20099;-74
2022/03/20 06:46:22;;;;;;;21.48;14.45;;;8.40;96.30;;;;;;5051609;28;20434;-74
2022/03/20 06:48:48;;;;;;;22.30;18.45;;;8.50;96.00;;;;;;5053189;28;20092;-73
2022/03/20 06:51:17;;;;;;;23.08;18.25;;;8.60;96.20;;;;;;5053186;28;20025;-74
2022/03/20 06:53:42;;;;;;;21.20;17.08;;;8.60;95.40;;;;;;5045843;28;20021;-73
2022/03/20 06:56:08;;;;;;;21.80;16.52;;;8.70;95.00;;;;;;5051959;28;20036;-74
2022/03/20 07:01:40;;;;;;;22.30;16.73;;;8.80;95.00;;;;;;5050282;28;20041;-73
2022/03/20 07:04:06;;;;;;;16.48;14.13;;;9.00;94.40;;;;;;5052414;28;20363;-74
2022/03/20 07:06:33;;;;;;;22.20;17.65;;;9.10;93.60;;;;;;5045096;28;20127;-73
2022/03/20 07:09:01;;;;;;;20.88;15.68;;;9.10;93.90;;;;;;5037086;28;20040;-73
2022/03/20 07:11:32;;;;;;;23.17;16.17;;;9.20;93.60;;;;;;5051833;28;20028;-76
2022/03/20 07:14:19;;;;;;;23.00;15.90;;;9.30;93.90;;;;;;5052926;28;20423;-74
2022/03/20 07:16:45;;;;;;;16.60;14.73;;;9.40;93.60;;;;;;5055700;28;20096;-75
2022/03/20 07:19:11;;;;;;;17.90;15.65;;;9.50;93.60;;;;;;5052182;28;20776;-72
2022/03/20 07:21:37;;;;;;;21.48;16.98;;;9.50;93.80;;;;;;5052041;28;20411;-73
2022/03/20 07:24:03;;;;;;;25.13;18.50;;;9.50;93.00;;;;;;5051760;28;20135;-75
2022/03/20 07:29:32;;;;;;;19.65;15.55;;;9.70;93.20;;;;;;5051173;28;20359;-73
2022/03/20 07:32:06;;;;;;;24.08;15.85;;;9.70;92.70;;;;;;5052117;28;20454;-74
2022/03/20 07:34:35;;;;;;;18.27;15.65;;;9.80;92.40;;;;;;5049245;28;20075;-73
2022/03/20 07:37:03;;;;;;;15.73;12.43;;;9.80;92.50;;;;;;5051550;28;20414;-73
2022/03/20 07:39:30;;;;;;;17.05;13.35;;;9.80;92.50;;;;;;5051244;28;20426;-73
2022/03/20 07:41:57;;;;;;;21.02;16.63;;;9.80;92.20;;;;;;5051188;28;20083;-72
2022/03/20 07:44:23;;;;;;;19.30;15.68;;;9.90;92.40;;;;;;5052282;28;20048;-73
2022/03/20 07:46:49;;;;;;;23.35;15.75;;;10.00;92.10;;;;;;5051258;28;20024;-73
2022/03/20 07:49:15;;;;;;;17.77;14.93;;;10.10;92.20;;;;;;5049776;28;20403;-73
2022/03/20 07:51:42;;;;;;;23.20;16.45;;;10.10;92.00;;;;;;5050972;28;20080;-73
2022/03/20 07:54:08;;;;;;;20.05;16.55;;;10.20;92.20;;;;;;5051082;28;20025;-73
2022/03/20 07:56:37;;;;;;;21.45;18.88;;;10.20;92.30;;;;;;5049646;28;20033;-73
2022/03/20 07:59:07;;;;;;;22.58;16.92;;;10.30;91.80;;;;;;5049374;28;20109;-73
2022/03/20 08:01:36;;;;;;;21.90;15.27;;;10.20;92.00;;;;;;5049610;28;20021;-73
2022/03/20 08:04:03;;;;;;;19.45;16.33;;;10.30;92.30;;;;;;5050239;28;20025;-73
2022/03/20 08:06:29;;;;;;;19.23;14.55;;;10.40;92.30;;;;;;5050044;28;20127;-68
2022/03/20 08:08:59;;;;;;;22.10;16.17;;;10.30;91.80;;;;;;5049914;28;20029;-68
2022/03/20 08:11:29;;;;;;;21.88;15.23;;;10.30;92.00;;;;;;5048829;28;20044;-68
2022/03/20 08:13:55;;;;;;;18.15;13.82;;;10.50;92.30;;;;;;5042481;28;20029;-67
2022/03/20 08:16:25;;;;;;;20.17;16.88;;;10.60;91.80;;;;;;5048826;28;20110;-68
2022/03/20 08:18:52;;;;;;;20.55;14.70;;;10.60;92.10;;;;;;5043326;28;20031;-68
2022/03/20 08:21:17;;;;;;;20.42;12.90;;;10.50;91.10;;;;;;5044185;28;20113;-67
2022/03/20 08:23:43;;;;;;;25.40;15.57;;;10.40;91.30;;;;;;5038675;28;20120;-67
2022/03/20 08:26:11;;;;;;;18.90;15.82;;;10.50;91.30;;;;;;5040369;28;20471;-68
2022/03/20 08:28:43;;;;;;;21.40;15.25;;;10.70;91.10;;;;;;5039426;28;20036;-67
2022/03/20 08:31:09;;;;;;;23.85;17.17;;;10.80;91.30;;;;;;5043959;28;20021;-67
2022/03/20 08:33:35;;;;;;;17.17;12.80;;;10.90;91.30;;;;;;5044333;28;20033;-66
2022/03/20 08:36:03;;;;;;;17.33;15.18;;;10.90;90.90;;;;;;5050378;28;20017;-67
2022/03/20 08:38:28;;;;;;;12.23;10.93;;;11.00;90.80;;;;;;5046935;28;20112;-66
2022/03/20 08:40:55;;;;;;;16.27;13.38;;;11.10;89.70;;;;;;5048406;28;20104;-68
2022/03/20 08:43:21;;;;;;;16.35;14.18;;;11.10;89.60;;;;;;5051603;28;20029;-67
2022/03/20 08:45:47;;;;;;;15.85;13.27;;;11.20;90.60;;;;;;5049324;28;20036;-66
2022/03/20 08:48:13;;;;;;;20.08;14.63;;;11.40;89.10;;;;;;5047959;28;20588;-67
2022/03/20 08:50:39;;;;;;;20.60;14.57;;;11.50;88.50;;;;;;5047801;28;20119;-67
2022/03/20 08:53:05;;;;;;;16.13;13.18;;;11.50;88.30;;;;;;5049225;28;20035;-66
2022/03/20 08:55:34;;;;;;;16.30;14.57;;;11.60;87.80;;;;;;5046149;28;20033;-66
2022/03/20 08:58:00;;;;;;;16.25;13.73;;;11.70;87.50;;;;;;5045434;28;20483;-67
2022/03/20 09:00:26;;;;;;;18.00;12.60;;;11.90;87.00;;;;;;5048308;28;20203;-68
2022/03/20 09:02:53;;;;;;;22.65;12.93;;;11.90;84.30;;;;;;5049469;28;20040;-67
2022/03/20 09:05:20;;;;;;;13.48;10.68;;;11.90;83.70;;;;;;5048336;28;20395;-67
2022/03/20 09:07:48;;;;;;;16.48;11.32;;;11.80;81.40;;;;;;5046622;28;20105;-66
2022/03/20 09:10:15;;;;;;;12.25;10.77;;;11.70;80.20;;;;;;5051857;28;20024;-68
2022/03/20 09:12:43;;;;;;;13.40;11.05;;;11.70;78.80;;;;;;5051848;28;20021;-69
2022/03/20 09:15:12;;;;;;;13.85;10.95;;;11.90;78.10;;;;;;5048770;28;20017;-67
2022/03/20 09:20:23;;;;;;;18.33;11.60;;;12.00;76.30;;;;;;5048735;28;20079;-67
2022/03/20 09:22:49;;;;;;;12.40;11.10;;;12.00;75.90;;;;;;5048918;28;20060;-67
2022/03/20 09:25:15;;;;;;;15.10;11.93;;;12.10;76.20;;;;;;5045947;28;20033;-67
2022/03/20 09:27:41;;;;;;;10.68;9.57;;;12.20;77.90;;;;;;5052831;28;20028;-68
2022/03/20 09:30:07;;;;;;;15.18;12.40;;;12.30;75.90;;;;;;5051778;28;20029;-66
2022/03/20 09:32:33;;;;;;;14.27;11.50;;;12.20;75.60;;;;;;5050027;28;20025;-66
2022/03/20 09:34:59;;;;;;;13.38;11.90;;;12.20;75.10;;;;;;5050883;28;20024;-67
2022/03/20 09:37:26;;;;;;;15.18;13.68;;;12.40;75.60;;;;;;5050374;28;20402;-66
2022/03/20 09:39:51;;;;;;;19.50;14.07;;;12.50;76.40;;;;;;5042472;28;20025;-67
2022/03/20 09:42:20;;;;;;;14.70;10.27;;;12.60;77.70;;;;;;5049825;28;20037;-67
2022/03/20 09:44:49;;;;;;;18.70;12.07;;;12.80;76.00;;;;;;5047537;28;20040;-66
2022/03/20 09:47:18;;;;;;;12.40;11.05;;;12.80;77.50;;;;;;5050291;28;20051;-67
2022/03/20 09:49:45;;;;;;;14.73;12.68;;;12.70;77.20;;;;;;5052813;28;20048;-66
2022/03/20 09:52:11;;;;;;;15.38;13.48;;;12.60;76.50;;;;;;5043208;28;20414;-68
2022/03/20 09:54:37;;;;;;;18.63;12.25;;;12.30;77.60;;;;;;5046095;28;20032;-66
2022/03/20 09:57:06;;;;;;;14.85;12.18;;;12.40;77.70;;;;;;5051029;28;20463;-66
2022/03/20 09:59:32;;;;;;;15.73;12.13;;;12.40;77.30;;;;;;5052481;28;20032;-67
2022/03/20 10:02:06;;;;;;;13.45;10.00;;;12.40;77.30;;;;;;5044612;28;20357;-68
2022/03/20 10:04:35;;;;;;;13.10;11.70;;;12.30;77.00;;;;;;5042907;28;20030;-67
2022/03/20 10:07:01;;;;;;;15.68;9.85;;;12.30;76.20;;;;;;5046230;28;20387;-67
2022/03/20 10:09:28;;;;;;;15.40;11.57;;;12.30;76.00;;;;;;5045908;28;20021;-66
2022/03/20 10:11:54;;;;;;;16.95;11.05;;;12.30;76.20;;;;;;5040705;28;20035;-67
2022/03/20 10:14:31;;;;;;;15.45;10.93;;;12.50;76.90;;;;;;5041753;28;20488;-66
2022/03/20 10:17:20;;;;;;;16.77;11.43;;;12.60;75.70;;;;;;5045151;28;20475;-67
2022/03/20 10:19:45;;;;;;;12.90;11.38;;;12.70;76.30;;;;;;5048330;28;20040;-67
2022/03/20 10:22:14;;;;;;;14.95;10.82;;;12.80;76.70;;;;;;5043518;28;20022;-67
2022/03/20 10:24:48;;;;;;;15.55;11.73;;;12.80;75.70;;;;;;5049748;28;20021;-66
2022/03/20 10:27:14;;;;;;;14.38;11.88;;;12.90;75.60;;;;;;5041922;28;20040;-67
2022/03/20 10:29:53;;;;;;;20.58;10.40;;;12.70;75.60;;;;;;5042233;28;20018;-67
2022/03/20 10:32:19;;;;;;;11.98;9.63;;;12.50;75.10;;;;;;5046488;28;20513;-67
2022/03/20 10:34:53;;;;;;;13.05;9.40;;;12.50;75.40;;;;;;5045506;28;20112;-68
2022/03/20 10:37:21;;;;;;;14.40;11.48;;;12.60;76.10;;;;;;5043239;28;20025;-68
2022/03/20 10:39:47;;;;;;;16.42;12.07;;;12.60;75.10;;;;;;5045746;28;20033;-68
2022/03/20 10:42:15;;;;;;;10.68;9.43;;;12.80;76.20;;;;;;5042589;28;20040;-68
2022/03/20 10:44:42;;;;;;;18.85;12.68;;;13.10;75.60;;;;;;5046978;28;20032;-68
2022/03/20 10:47:14;;;;;;;11.73;9.68;;;13.10;75.60;;;;;;5035012;28;20026;-67
2022/03/20 10:49:42;;;;;;;13.57;11.32;;;13.00;76.10;;;;;;5044181;28;20040;-67
2022/03/20 10:52:18;;;;;;;12.75;11.43;;;13.00;75.70;;;;;;5042045;28;20476;-69
2022/03/20 10:54:46;;;;;;;12.35;10.30;;;13.10;74.90;;;;;;5042943;28;20025;-69
2022/03/20 10:57:14;;;;;;;16.00;11.25;;;13.20;75.00;;;;;;5038769;28;20021;-67
2022/03/20 10:59:41;;;;;;;15.90;11.35;;;13.30;73.90;;;;;;5045809;28;20519;-69
2022/03/20 11:02:23;;;;;;;13.63;10.68;;;13.10;73.10;;;;;;5044529;28;20434;-67
2022/03/20 11:04:49;;;;;;;;;;;13.00;74.40;;;;;;5047462;28;20029;-70
2022/03/20 11:07:19;;;;;;;15.88;11.75;;;13.10;74.30;;;;;;5043807;28;20274;-68
2022/03/20 11:09:49;;;;;;;14.98;11.07;;;13.30;73.70;;;;;;5047369;28;20029;-67
2022/03/20 11:12:26;;;;;;;13.70;10.90;;;13.00;73.10;;;;;;5038981;28;20027;-66
2022/03/20 11:14:54;;;;;;;12.73;9.85;;;13.10;74.60;;;;;;5040148;28;20032;-67
2022/03/20 11:17:23;;;;;;;17.20;11.77;;;13.00;73.00;;;;;;5042214;28;20090;-66
2022/03/20 11:19:53;;;;;;;13.88;10.45;;;13.20;74.30;;;;;;5043781;28;20036;-67
2022/03/20 11:22:20;;;;;;;12.10;10.82;;;13.20;74.20;;;;;;5045252;28;20025;-67
2022/03/20 11:24:48;;;;;;;17.70;11.52;;;13.20;73.40;;;;;;5046035;28;20032;-71
2022/03/20 11:27:23;;;;;;;12.48;11.13;;;13.30;73.20;;;;;;5048439;28;20025;-68
2022/03/20 11:30:03;;;;;;;10.40;9.10;;;13.10;72.10;;;;;;5045151;28;20472;-67
2022/03/20 11:32:29;;;;;;;14.20;9.43;;;13.10;72.20;;;;;;5049385;28;20101;-68
2022/03/20 11:34:56;;;;;;;10.98;8.80;;;13.20;71.70;;;;;;5043482;28;20095;-68
2022/03/20 11:37:22;;;;;;;11.13;9.95;;;13.20;71.90;;;;;;5044002;28;20509;-68
2022/03/20 11:40:12;;;;;;;12.85;9.50;;;13.30;72.30;;;;;;5043516;28;20037;-69
2022/03/20 11:42:39;;;;;;;15.68;9.25;;;13.30;70.90;;;;;;5044135;28;20044;-68
2022/03/20 11:45:04;;;;;;;11.55;9.38;;;13.40;70.70;;;;;;5049766;28;20040;-70
2022/03/20 11:47:35;;;;;;;11.32;8.70;;;13.40;70.30;;;;;;5044721;28;20030;-68
2022/03/20 11:50:13;;;;;;;10.93;8.88;;;13.40;69.00;;;;;;5047059;28;20025;-68
2022/03/20 11:52:45;;;;;;;11.23;9.35;;;13.30;68.70;;;;;;5043855;28;20017;-68
2022/03/20 11:55:23;;;;;;;;;;;13.40;69.70;;;;;;5040105;28;20463;-68
2022/03/20 11:57:50;;;;;;;9.88;8.32;;;13.50;69.80;;;;;;5040879;28;19909;-67
2022/03/20 12:00:19;;;;;;;13.32;9.57;;;13.70;69.50;;;;;;5040666;28;20500;-67
2022/03/20 12:02:45;;;;;;;11.10;9.07;;;13.90;69.50;;;;;;5044192;28;20135;-67
2022/03/20 12:05:47;;;;;;;11.32;8.75;;;14.00;68.30;;;;;;5039522;28;20028;-68
2022/03/20 12:08:44;;;;;;;13.32;8.90;;;13.90;67.40;;;;;;5027579;28;20049;-67
2022/03/20 12:11:28;;;;;;;11.07;8.90;;;13.70;66.90;;;;;;5041542;28;20116;-67
2022/03/20 12:14:17;;;;;;;9.32;8.45;;;13.60;67.90;;;;;;5047041;28;20032;-67
2022/03/20 12:16:48;;;;;;;10.90;9.13;;;13.50;66.50;;;;;;5045211;28;20028;-70
2022/03/20 12:19:16;;;;;;;11.85;8.43;;;13.40;66.50;;;;;;5034042;28;20140;-67
2022/03/20 12:22:06;;;;;;;9.18;7.95;;;13.60;68.30;;;;;;5047230;28;20080;-68
2022/03/20 12:24:35;;;;;;;9.95;8.52;;;13.60;66.70;;;;;;5034882;28;20467;-67
2022/03/20 12:27:25;;;;;;;11.77;9.48;;;13.60;67.00;;;;;;5046296;28;20032;-68
2022/03/20 12:29:54;;;;;;;13.30;8.70;;;13.60;67.60;;;;;;5049655;28;20483;-69
2022/03/20 12:32:21;;;;;;;11.85;9.00;;;13.80;67.10;;;;;;5050505;28;20013;-69
2022/03/20 12:35:04;;;;;;;11.68;8.80;;;13.90;67.40;;;;;;5042791;28;20100;-70
2022/03/20 12:37:32;;;;;;;9.30;8.40;;;13.90;64.70;;;;;;5044658;28;20447;-68
2022/03/20 12:40:09;;;;;;;10.55;8.45;;;13.80;66.00;;;;;;5049880;28;20445;-69
2022/03/20 12:42:42;;;;;;;9.77;7.75;;;13.80;66.20;;;;;;5053709;28;20164;-69
2022/03/20 12:45:14;;;;;;;11.65;9.73;;;13.90;65.40;;;;;;5043371;28;20033;-69
2022/03/20 12:47:56;;;;;;;12.07;8.95;;;13.80;64.50;;;;;;5042112;28;20017;-68
2022/03/20 12:50:25;;;;;;;10.85;8.35;;;13.50;65.00;;;;;;5039965;28;20444;-68
2022/03/20 12:52:54;;;;;;;13.07;8.57;;;13.60;65.80;;;;;;5047780;28;20483;-68
2022/03/20 12:55:26;;;;;;;11.80;8.52;;;13.70;65.50;;;;;;5045430;28;20044;-69
2022/03/20 12:57:52;;;;;;;10.23;9.20;;;13.90;66.80;;;;;;5049464;28;20044;-68
2022/03/20 13:00:25;;;;;;;11.40;9.20;;;14.10;66.30;;;;;;5048258;28;20029;-69
2022/03/20 13:03:07;;;;;;;11.55;9.07;;;14.20;64.90;;;;;;5046397;28;20025;-67
2022/03/20 13:05:45;;;;;;;8.43;7.65;;;14.00;64.10;;;;;;5048815;28;20029;-67
2022/03/20 13:08:31;;;;;;;9.07;6.63;;;13.60;64.20;;;;;;5037187;28;20025;-68
2022/03/20 13:14:01;;;;;;;12.57;10.90;;;13.50;63.10;;;;;;5035455;28;20103;-70
2022/03/20 13:16:29;;;;;;;8.63;7.30;;;13.60;66.20;;;;;;5039848;28;20018;-67
2022/03/20 13:18:55;;;;;;;9.55;8.63;;;13.80;64.40;;;;;;5052250;28;20025;-68